sensor_id;sensor_type;location;lat;lon;timestamp;P1;durP1;ratioP1;P2;durP2;ratioP2
32808;SDS011;19159;48.178;16.386;2024-01-11T00:01:58;31.83;;;22.33;;
32808;SDS011;19159;48.178;16.386;2024-01-11T00:04:24;31.88;;;22.10;;
32808;SDS011;19159;48.178;16.386;2024-01-11T00:06:51;34.80;;;23.33;;
32808;SDS011;19159;48.178;16.386;2024-01-11T00:09:16;32.38;;;22.50;;
32808;SDS011;19159;48.178;16.386;2024-01-11T00:11:42;33.63;;;23.10;;
32808;SDS011;19159;48.178;16.386;2024-01-11T00:14:08;30.75;;;22.50;;
32808;SDS011;19159;48.178;16.386;2024-01-11T00:16:33;32.65;;;22.60;;
32808;SDS011;19159;48.178;16.386;2024-01-11T00:18:59;33.13;;;23.70;;
32808;SDS011;19159;48.178;16.386;2024-01-11T00:21:25;32.88;;;23.35;;
32808;SDS011;19159;48.178;16.386;2024-01-11T00:23:51;31.58;;;22.98;;
32808;SDS011;19159;48.178;16.386;2024-01-11T00:26:16;33.13;;;23.38;;
32808;SDS011;19159;48.178;16.386;2024-01-11T00:28:42;30.55;;;22.17;;
32808;SDS011;19159;48.178;16.386;2024-01-11T00:31:08;32.30;;;22.58;;
32808;SDS011;19159;48.178;16.386;2024-01-11T00:33:33;33.47;;;23.83;;
32808;SDS011;19159;48.178;16.386;2024-01-11T00:35:59;32.95;;;23.15;;
32808;SDS011;19159;48.178;16.386;2024-01-11T00:38:24;33.47;;;23.48;;
32808;SDS011;19159;48.178;16.386;2024-01-11T00:40:50;36.92;;;23.67;;
32808;SDS011;19159;48.178;16.386;2024-01-11T00:43:16;32.42;;;24.25;;
32808;SDS011;19159;48.178;16.386;2024-01-11T00:45:41;33.60;;;23.58;;
32808;SDS011;19159;48.178;16.386;2024-01-11T00:48:07;35.45;;;22.45;;
32808;SDS011;19159;48.178;16.386;2024-01-11T00:50:33;33.72;;;23.27;;
32808;SDS011;19159;48.178;16.386;2024-01-11T00:52:58;33.28;;;22.42;;
32808;SDS011;19159;48.178;16.386;2024-01-11T00:55:26;34.35;;;22.70;;
32808;SDS011;19159;48.178;16.386;2024-01-11T00:57:51;30.70;;;21.98;;
32808;SDS011;19159;48.178;16.386;2024-01-11T01:00:17;34.25;;;23.60;;
32808;SDS011;19159;48.178;16.386;2024-01-11T01:02:43;32.00;;;22.95;;
32808;SDS011;19159;48.178;16.386;2024-01-11T01:05:08;31.98;;;22.55;;
32808;SDS011;19159;48.178;16.386;2024-01-11T01:07:34;33.20;;;23.85;;
32808;SDS011;19159;48.178;16.386;2024-01-11T01:10:00;37.47;;;23.77;;
32808;SDS011;19159;48.178;16.386;2024-01-11T01:12:26;32.63;;;23.23;;
32808;SDS011;19159;48.178;16.386;2024-01-11T01:14:55;34.53;;;23.70;;
32808;SDS011;19159;48.178;16.386;2024-01-11T01:17:21;36.00;;;23.63;;
32808;SDS011;19159;48.178;16.386;2024-01-11T01:19:47;36.35;;;23.77;;
32808;SDS011;19159;48.178;16.386;2024-01-11T01:22:13;36.88;;;23.95;;
32808;SDS011;19159;48.178;16.386;2024-01-11T01:24:38;37.63;;;25.10;;
32808;SDS011;19159;48.178;16.386;2024-01-11T01:27:04;34.58;;;24.20;;
32808;SDS011;19159;48.178;16.386;2024-01-11T01:29:30;34.78;;;24.08;;
32808;SDS011;19159;48.178;16.386;2024-01-11T01:31:55;29.95;;;22.40;;
32808;SDS011;19159;48.178;16.386;2024-01-11T01:34:21;31.95;;;22.70;;
32808;SDS011;19159;48.178;16.386;2024-01-11T01:36:47;37.35;;;24.98;;
32808;SDS011;19159;48.178;16.386;2024-01-11T01:39:12;36.38;;;23.63;;
32808;SDS011;19159;48.178;16.386;2024-01-11T01:41:38;33.80;;;23.45;;
32808;SDS011;19159;48.178;16.386;2024-01-11T01:44:03;32.17;;;23.10;;
32808;SDS011;19159;48.178;16.386;2024-01-11T01:46:29;32.45;;;23.23;;
32808;SDS011;19159;48.178;16.386;2024-01-11T01:48:56;35.03;;;24.13;;
32808;SDS011;19159;48.178;16.386;2024-01-11T01:51:23;33.38;;;23.23;;
32808;SDS011;19159;48.178;16.386;2024-01-11T01:53:52;34.22;;;24.00;;
32808;SDS011;19159;48.178;16.386;2024-01-11T01:56:19;31.98;;;22.70;;
32808;SDS011;19159;48.178;16.386;2024-01-11T01:58:46;35.92;;;23.63;;
32808;SDS011;19159;48.178;16.386;2024-01-11T02:01:14;35.38;;;24.85;;
32808;SDS011;19159;48.178;16.386;2024-01-11T02:03:40;34.25;;;23.38;;
32808;SDS011;19159;48.178;16.386;2024-01-11T02:06:06;33.42;;;24.05;;
32808;SDS011;19159;48.178;16.386;2024-01-11T02:08:32;36.80;;;25.13;;
32808;SDS011;19159;48.178;16.386;2024-01-11T02:10:59;34.05;;;23.85;;
32808;SDS011;19159;48.178;16.386;2024-01-11T02:13:26;36.72;;;24.20;;
32808;SDS011;19159;48.178;16.386;2024-01-11T02:15:51;33.75;;;24.25;;
32808;SDS011;19159;48.178;16.386;2024-01-11T02:18:17;33.88;;;24.05;;
32808;SDS011;19159;48.178;16.386;2024-01-11T02:20:43;33.70;;;24.33;;
32808;SDS011;19159;48.178;16.386;2024-01-11T02:23:11;35.50;;;23.48;;
32808;SDS011;19159;48.178;16.386;2024-01-11T02:25:46;32.72;;;23.65;;
32808;SDS011;19159;48.178;16.386;2024-01-11T02:28:12;35.38;;;24.75;;
32808;SDS011;19159;48.178;16.386;2024-01-11T02:30:38;33.72;;;24.98;;
32808;SDS011;19159;48.178;16.386;2024-01-11T02:33:04;35.17;;;25.05;;
32808;SDS011;19159;48.178;16.386;2024-01-11T02:35:30;35.42;;;24.45;;
32808;SDS011;19159;48.178;16.386;2024-01-11T02:37:57;34.25;;;23.65;;
32808;SDS011;19159;48.178;16.386;2024-01-11T02:40:24;34.83;;;23.58;;
32808;SDS011;19159;48.178;16.386;2024-01-11T02:42:51;34.35;;;24.35;;
32808;SDS011;19159;48.178;16.386;2024-01-11T02:45:17;35.85;;;25.13;;
32808;SDS011;19159;48.178;16.386;2024-01-11T02:47:43;33.65;;;24.55;;
32808;SDS011;19159;48.178;16.386;2024-01-11T02:50:09;35.47;;;24.75;;
32808;SDS011;19159;48.178;16.386;2024-01-11T02:52:37;36.00;;;24.30;;
32808;SDS011;19159;48.178;16.386;2024-01-11T02:55:02;35.40;;;23.90;;
32808;SDS011;19159;48.178;16.386;2024-01-11T02:57:28;35.20;;;23.65;;
32808;SDS011;19159;48.178;16.386;2024-01-11T02:59:54;36.75;;;24.88;;
32808;SDS011;19159;48.178;16.386;2024-01-11T03:02:19;36.55;;;25.50;;
32808;SDS011;19159;48.178;16.386;2024-01-11T03:04:45;34.53;;;24.50;;
32808;SDS011;19159;48.178;16.386;2024-01-11T03:07:11;34.60;;;24.20;;
32808;SDS011;19159;48.178;16.386;2024-01-11T03:09:37;38.95;;;25.13;;
32808;SDS011;19159;48.178;16.386;2024-01-11T03:12:02;35.83;;;24.95;;
32808;SDS011;19159;48.178;16.386;2024-01-11T03:14:28;35.53;;;24.90;;
32808;SDS011;19159;48.178;16.386;2024-01-11T03:16:54;34.72;;;24.27;;
32808;SDS011;19159;48.178;16.386;2024-01-11T03:19:20;34.35;;;24.08;;
32808;SDS011;19159;48.178;16.386;2024-01-11T03:21:46;36.85;;;24.60;;
32808;SDS011;19159;48.178;16.386;2024-01-11T03:24:12;33.47;;;23.75;;
32808;SDS011;19159;48.178;16.386;2024-01-11T03:26:38;32.83;;;22.85;;
32808;SDS011;19159;48.178;16.386;2024-01-11T03:29:04;29.55;;;22.02;;
32808;SDS011;19159;48.178;16.386;2024-01-11T03:31:30;29.10;;;21.27;;
32808;SDS011;19159;48.178;16.386;2024-01-11T03:33:56;32.38;;;22.38;;
32808;SDS011;19159;48.178;16.386;2024-01-11T03:36:25;34.15;;;22.70;;
32808;SDS011;19159;48.178;16.386;2024-01-11T03:38:51;29.90;;;21.42;;
32808;SDS011;19159;48.178;16.386;2024-01-11T03:41:16;32.20;;;21.80;;
32808;SDS011;19159;48.178;16.386;2024-01-11T03:43:42;32.88;;;20.38;;
32808;SDS011;19159;48.178;16.386;2024-01-11T03:46:08;31.65;;;21.92;;
32808;SDS011;19159;48.178;16.386;2024-01-11T03:48:33;30.88;;;21.65;;
32808;SDS011;19159;48.178;16.386;2024-01-11T03:51:02;29.80;;;20.58;;
32808;SDS011;19159;48.178;16.386;2024-01-11T03:53:28;28.55;;;19.73;;
32808;SDS011;19159;48.178;16.386;2024-01-11T03:55:54;32.55;;;21.05;;
32808;SDS011;19159;48.178;16.386;2024-01-11T03:58:19;31.25;;;21.23;;
32808;SDS011;19159;48.178;16.386;2024-01-11T04:00:45;31.77;;;20.75;;
32808;SDS011;19159;48.178;16.386;2024-01-11T04:03:11;30.98;;;21.10;;
32808;SDS011;19159;48.178;16.386;2024-01-11T04:05:36;29.58;;;20.73;;
32808;SDS011;19159;48.178;16.386;2024-01-11T04:08:05;30.42;;;20.52;;
32808;SDS011;19159;48.178;16.386;2024-01-11T04:10:32;30.08;;;20.90;;
32808;SDS011;19159;48.178;16.386;2024-01-11T04:12:57;30.90;;;21.27;;
32808;SDS011;19159;48.178;16.386;2024-01-11T04:15:23;28.73;;;19.52;;
32808;SDS011;19159;48.178;16.386;2024-01-11T04:17:49;29.77;;;20.70;;
32808;SDS011;19159;48.178;16.386;2024-01-11T04:20:14;34.38;;;21.00;;
32808;SDS011;19159;48.178;16.386;2024-01-11T04:22:40;30.52;;;21.02;;
32808;SDS011;19159;48.178;16.386;2024-01-11T04:25:06;32.42;;;21.35;;
32808;SDS011;19159;48.178;16.386;2024-01-11T04:27:32;31.58;;;22.10;;
32808;SDS011;19159;48.178;16.386;2024-01-11T04:29:58;27.83;;;20.67;;
32808;SDS011;19159;48.178;16.386;2024-01-11T04:32:24;34.00;;;21.65;;
32808;SDS011;19159;48.178;16.386;2024-01-11T04:34:49;30.52;;;20.90;;
32808;SDS011;19159;48.178;16.386;2024-01-11T04:37:15;29.27;;;19.27;;
32808;SDS011;19159;48.178;16.386;2024-01-11T04:39:41;31.55;;;20.42;;
32808;SDS011;19159;48.178;16.386;2024-01-11T04:42:06;29.25;;;20.45;;
32808;SDS011;19159;48.178;16.386;2024-01-11T04:44:32;29.67;;;21.27;;
32808;SDS011;19159;48.178;16.386;2024-01-11T04:46:57;28.63;;;21.45;;
32808;SDS011;19159;48.178;16.386;2024-01-11T04:49:23;32.50;;;21.30;;
32808;SDS011;19159;48.178;16.386;2024-01-11T04:51:49;29.33;;;20.23;;
32808;SDS011;19159;48.178;16.386;2024-01-11T04:54:15;31.63;;;22.73;;
32808;SDS011;19159;48.178;16.386;2024-01-11T04:56:40;31.13;;;21.13;;
32808;SDS011;19159;48.178;16.386;2024-01-11T04:59:06;30.73;;;20.50;;
32808;SDS011;19159;48.178;16.386;2024-01-11T05:01:32;34.78;;;22.88;;
32808;SDS011;19159;48.178;16.386;2024-01-11T05:03:58;33.42;;;22.92;;
32808;SDS011;19159;48.178;16.386;2024-01-11T05:06:23;36.80;;;25.40;;
32808;SDS011;19159;48.178;16.386;2024-01-11T05:08:50;33.83;;;23.60;;
32808;SDS011;19159;48.178;16.386;2024-01-11T05:11:20;33.58;;;23.38;;
32808;SDS011;19159;48.178;16.386;2024-01-11T05:13:49;35.92;;;25.17;;
32808;SDS011;19159;48.178;16.386;2024-01-11T05:16:25;34.05;;;24.58;;
32808;SDS011;19159;48.178;16.386;2024-01-11T05:18:55;37.28;;;25.35;;
32808;SDS011;19159;48.178;16.386;2024-01-11T05:21:22;33.03;;;23.45;;
32808;SDS011;19159;48.178;16.386;2024-01-11T05:23:48;37.50;;;26.63;;
32808;SDS011;19159;48.178;16.386;2024-01-11T05:26:16;34.70;;;24.92;;
32808;SDS011;19159;48.178;16.386;2024-01-11T05:28:43;34.95;;;24.02;;
32808;SDS011;19159;48.178;16.386;2024-01-11T05:31:10;35.28;;;24.90;;
32808;SDS011;19159;48.178;16.386;2024-01-11T05:33:36;34.67;;;24.35;;
32808;SDS011;19159;48.178;16.386;2024-01-11T05:36:05;36.53;;;25.63;;
32808;SDS011;19159;48.178;16.386;2024-01-11T05:38:31;40.38;;;25.17;;
32808;SDS011;19159;48.178;16.386;2024-01-11T05:40:57;34.92;;;25.30;;
32808;SDS011;19159;48.178;16.386;2024-01-11T05:43:23;37.67;;;26.13;;
32808;SDS011;19159;48.178;16.386;2024-01-11T05:45:48;34.85;;;24.65;;
32808;SDS011;19159;48.178;16.386;2024-01-11T05:48:15;35.75;;;24.52;;
32808;SDS011;19159;48.178;16.386;2024-01-11T05:50:41;36.60;;;25.33;;
32808;SDS011;19159;48.178;16.386;2024-01-11T05:53:07;32.22;;;23.95;;
32808;SDS011;19159;48.178;16.386;2024-01-11T05:55:32;37.58;;;25.75;;
32808;SDS011;19159;48.178;16.386;2024-01-11T05:57:58;36.22;;;24.05;;
32808;SDS011;19159;48.178;16.386;2024-01-11T06:00:24;34.15;;;24.13;;
32808;SDS011;19159;48.178;16.386;2024-01-11T06:02:50;36.58;;;25.42;;
32808;SDS011;19159;48.178;16.386;2024-01-11T06:05:15;37.08;;;25.85;;
32808;SDS011;19159;48.178;16.386;2024-01-11T06:07:42;37.47;;;26.35;;
32808;SDS011;19159;48.178;16.386;2024-01-11T06:10:07;39.70;;;25.35;;
32808;SDS011;19159;48.178;16.386;2024-01-11T06:12:34;40.67;;;26.98;;
32808;SDS011;19159;48.178;16.386;2024-01-11T06:15:00;36.88;;;26.08;;
32808;SDS011;19159;48.178;16.386;2024-01-11T06:17:26;38.40;;;26.05;;
32808;SDS011;19159;48.178;16.386;2024-01-11T06:19:52;41.05;;;26.77;;
32808;SDS011;19159;48.178;16.386;2024-01-11T06:22:18;38.13;;;26.25;;
32808;SDS011;19159;48.178;16.386;2024-01-11T06:24:44;37.17;;;25.15;;
32808;SDS011;19159;48.178;16.386;2024-01-11T06:27:10;41.28;;;26.63;;
32808;SDS011;19159;48.178;16.386;2024-01-11T06:29:35;40.33;;;27.40;;
32808;SDS011;19159;48.178;16.386;2024-01-11T06:32:01;39.95;;;27.00;;
32808;SDS011;19159;48.178;16.386;2024-01-11T06:34:27;43.00;;;27.60;;
32808;SDS011;19159;48.178;16.386;2024-01-11T06:36:53;42.17;;;27.90;;
32808;SDS011;19159;48.178;16.386;2024-01-11T06:39:20;42.22;;;25.83;;
32808;SDS011;19159;48.178;16.386;2024-01-11T06:41:45;39.75;;;27.05;;
32808;SDS011;19159;48.178;16.386;2024-01-11T06:44:11;40.60;;;27.33;;
32808;SDS011;19159;48.178;16.386;2024-01-11T06:46:37;39.58;;;26.23;;
32808;SDS011;19159;48.178;16.386;2024-01-11T06:49:05;40.65;;;27.38;;
32808;SDS011;19159;48.178;16.386;2024-01-11T06:51:31;41.83;;;26.20;;
32808;SDS011;19159;48.178;16.386;2024-01-11T06:53:56;43.05;;;27.63;;
32808;SDS011;19159;48.178;16.386;2024-01-11T06:56:22;43.25;;;26.58;;
32808;SDS011;19159;48.178;16.386;2024-01-11T06:58:48;37.03;;;25.58;;
32808;SDS011;19159;48.178;16.386;2024-01-11T07:01:14;45.10;;;27.27;;
32808;SDS011;19159;48.178;16.386;2024-01-11T07:03:40;41.90;;;27.70;;
32808;SDS011;19159;48.178;16.386;2024-01-11T07:06:06;41.70;;;27.65;;
32808;SDS011;19159;48.178;16.386;2024-01-11T07:08:32;44.60;;;27.10;;
32808;SDS011;19159;48.178;16.386;2024-01-11T07:10:59;41.33;;;26.75;;
32808;SDS011;19159;48.178;16.386;2024-01-11T07:13:27;39.20;;;26.58;;
32808;SDS011;19159;48.178;16.386;2024-01-11T07:15:53;43.55;;;28.48;;
32808;SDS011;19159;48.178;16.386;2024-01-11T07:18:20;42.83;;;27.95;;
32808;SDS011;19159;48.178;16.386;2024-01-11T07:20:46;42.83;;;28.08;;
32808;SDS011;19159;48.178;16.386;2024-01-11T07:23:13;47.25;;;27.80;;
32808;SDS011;19159;48.178;16.386;2024-01-11T07:25:39;40.08;;;26.45;;
32808;SDS011;19159;48.178;16.386;2024-01-11T07:28:05;41.55;;;28.15;;
32808;SDS011;19159;48.178;16.386;2024-01-11T07:30:31;43.53;;;28.92;;
32808;SDS011;19159;48.178;16.386;2024-01-11T07:32:57;44.53;;;29.52;;
32808;SDS011;19159;48.178;16.386;2024-01-11T07:35:22;43.63;;;27.55;;
32808;SDS011;19159;48.178;16.386;2024-01-11T07:37:48;44.20;;;28.35;;
32808;SDS011;19159;48.178;16.386;2024-01-11T07:40:15;39.72;;;26.80;;
32808;SDS011;19159;48.178;16.386;2024-01-11T07:42:41;45.05;;;28.00;;
32808;SDS011;19159;48.178;16.386;2024-01-11T07:45:08;43.83;;;28.65;;
32808;SDS011;19159;48.178;16.386;2024-01-11T07:47:35;44.58;;;28.70;;
32808;SDS011;19159;48.178;16.386;2024-01-11T07:50:02;40.38;;;26.25;;
32808;SDS011;19159;48.178;16.386;2024-01-11T07:52:32;43.42;;;27.70;;
32808;SDS011;19159;48.178;16.386;2024-01-11T07:54:58;39.67;;;26.98;;
32808;SDS011;19159;48.178;16.386;2024-01-11T07:57:31;36.10;;;25.27;;
32808;SDS011;19159;48.178;16.386;2024-01-11T07:59:58;43.33;;;27.02;;
32808;SDS011;19159;48.178;16.386;2024-01-11T08:02:24;40.72;;;26.65;;
32808;SDS011;19159;48.178;16.386;2024-01-11T08:04:50;42.65;;;26.40;;
32808;SDS011;19159;48.178;16.386;2024-01-11T08:07:16;38.83;;;26.75;;
32808;SDS011;19159;48.178;16.386;2024-01-11T08:09:41;38.83;;;26.85;;
32808;SDS011;19159;48.178;16.386;2024-01-11T08:12:13;36.90;;;26.17;;
32808;SDS011;19159;48.178;16.386;2024-01-11T08:14:39;42.17;;;26.60;;
32808;SDS011;19159;48.178;16.386;2024-01-11T08:17:07;39.95;;;26.17;;
32808;SDS011;19159;48.178;16.386;2024-01-11T08:19:33;39.20;;;26.17;;
32808;SDS011;19159;48.178;16.386;2024-01-11T08:21:59;40.92;;;26.70;;
32808;SDS011;19159;48.178;16.386;2024-01-11T08:24:25;43.50;;;26.48;;
32808;SDS011;19159;48.178;16.386;2024-01-11T08:26:51;41.83;;;27.85;;
32808;SDS011;19159;48.178;16.386;2024-01-11T08:29:17;47.63;;;30.17;;
32808;SDS011;19159;48.178;16.386;2024-01-11T08:31:45;42.47;;;27.23;;
32808;SDS011;19159;48.178;16.386;2024-01-11T08:34:10;41.88;;;26.77;;
32808;SDS011;19159;48.178;16.386;2024-01-11T08:36:36;41.65;;;27.52;;
32808;SDS011;19159;48.178;16.386;2024-01-11T08:39:03;44.38;;;27.98;;
32808;SDS011;19159;48.178;16.386;2024-01-11T08:41:36;38.85;;;26.55;;
32808;SDS011;19159;48.178;16.386;2024-01-11T08:44:05;42.58;;;27.92;;
32808;SDS011;19159;48.178;16.386;2024-01-11T08:46:30;42.92;;;27.52;;
32808;SDS011;19159;48.178;16.386;2024-01-11T08:48:58;40.85;;;28.35;;
32808;SDS011;19159;48.178;16.386;2024-01-11T08:51:24;43.33;;;27.27;;
32808;SDS011;19159;48.178;16.386;2024-01-11T08:53:50;41.05;;;27.52;;
32808;SDS011;19159;48.178;16.386;2024-01-11T08:56:18;44.53;;;28.83;;
32808;SDS011;19159;48.178;16.386;2024-01-11T08:58:43;47.35;;;28.25;;
32808;SDS011;19159;48.178;16.386;2024-01-11T09:01:09;39.53;;;26.75;;
32808;SDS011;19159;48.178;16.386;2024-01-11T09:03:35;38.95;;;26.05;;
32808;SDS011;19159;48.178;16.386;2024-01-11T09:06:02;40.42;;;25.83;;
32808;SDS011;19159;48.178;16.386;2024-01-11T09:08:28;37.95;;;26.15;;
32808;SDS011;19159;48.178;16.386;2024-01-11T09:10:55;41.35;;;26.75;;
32808;SDS011;19159;48.178;16.386;2024-01-11T09:13:21;43.10;;;25.30;;
32808;SDS011;19159;48.178;16.386;2024-01-11T09:15:46;38.97;;;26.15;;
32808;SDS011;19159;48.178;16.386;2024-01-11T09:18:12;35.67;;;25.20;;
32808;SDS011;19159;48.178;16.386;2024-01-11T09:20:38;39.00;;;25.20;;
32808;SDS011;19159;48.178;16.386;2024-01-11T09:23:03;43.13;;;27.50;;
32808;SDS011;19159;48.178;16.386;2024-01-11T09:25:32;38.50;;;26.13;;
32808;SDS011;19159;48.178;16.386;2024-01-11T09:27:58;43.33;;;26.50;;
32808;SDS011;19159;48.178;16.386;2024-01-11T09:30:24;38.83;;;25.27;;
32808;SDS011;19159;48.178;16.386;2024-01-11T09:32:50;39.97;;;25.38;;
32808;SDS011;19159;48.178;16.386;2024-01-11T09:35:15;37.45;;;26.15;;
32808;SDS011;19159;48.178;16.386;2024-01-11T09:37:41;36.65;;;24.63;;
32808;SDS011;19159;48.178;16.386;2024-01-11T09:40:08;37.78;;;25.05;;
32808;SDS011;19159;48.178;16.386;2024-01-11T09:42:36;36.47;;;24.30;;
32808;SDS011;19159;48.178;16.386;2024-01-11T09:45:02;37.65;;;25.60;;
32808;SDS011;19159;48.178;16.386;2024-01-11T09:47:50;42.75;;;25.77;;
32808;SDS011;19159;48.178;16.386;2024-01-11T09:50:17;38.63;;;26.05;;
32808;SDS011;19159;48.178;16.386;2024-01-11T09:52:45;39.47;;;25.40;;
32808;SDS011;19159;48.178;16.386;2024-01-11T09:55:14;38.75;;;24.90;;
32808;SDS011;19159;48.178;16.386;2024-01-11T09:57:43;35.80;;;23.10;;
32808;SDS011;19159;48.178;16.386;2024-01-11T10:00:12;35.08;;;23.25;;
32808;SDS011;19159;48.178;16.386;2024-01-11T10:02:42;31.55;;;21.33;;
32808;SDS011;19159;48.178;16.386;2024-01-11T10:05:07;31.23;;;21.83;;
32808;SDS011;19159;48.178;16.386;2024-01-11T10:07:33;29.00;;;21.25;;
32808;SDS011;19159;48.178;16.386;2024-01-11T10:09:59;28.58;;;21.83;;
32808;SDS011;19159;48.178;16.386;2024-01-11T10:12:26;27.75;;;20.95;;
32808;SDS011;19159;48.178;16.386;2024-01-11T10:14:53;26.52;;;21.05;;
32808;SDS011;19159;48.178;16.386;2024-01-11T10:17:19;29.23;;;22.08;;
32808;SDS011;19159;48.178;16.386;2024-01-11T10:19:45;29.95;;;22.73;;
32808;SDS011;19159;48.178;16.386;2024-01-11T10:22:11;26.02;;;21.75;;
32808;SDS011;19159;48.178;16.386;2024-01-11T10:24:42;30.15;;;21.40;;
32808;SDS011;19159;48.178;16.386;2024-01-11T10:27:11;29.73;;;22.52;;
32808;SDS011;19159;48.178;16.386;2024-01-11T10:29:36;28.08;;;23.23;;
32808;SDS011;19159;48.178;16.386;2024-01-11T10:32:05;26.17;;;21.30;;
32808;SDS011;19159;48.178;16.386;2024-01-11T10:34:31;28.55;;;21.05;;
32808;SDS011;19159;48.178;16.386;2024-01-11T10:36:57;27.98;;;22.55;;
32808;SDS011;19159;48.178;16.386;2024-01-11T10:39:24;27.58;;;20.48;;
32808;SDS011;19159;48.178;16.386;2024-01-11T10:41:52;24.85;;;20.98;;
32808;SDS011;19159;48.178;16.386;2024-01-11T10:44:30;25.80;;;20.08;;
32808;SDS011;19159;48.178;16.386;2024-01-11T10:46:58;24.33;;;20.67;;
32808;SDS011;19159;48.178;16.386;2024-01-11T10:49:27;23.58;;;19.58;;
32808;SDS011;19159;48.178;16.386;2024-01-11T10:52:02;24.13;;;20.83;;
32808;SDS011;19159;48.178;16.386;2024-01-11T10:54:31;23.40;;;20.95;;
32808;SDS011;19159;48.178;16.386;2024-01-11T10:56:59;23.48;;;20.92;;
32808;SDS011;19159;48.178;16.386;2024-01-11T10:59:26;23.08;;;19.55;;
32808;SDS011;19159;48.178;16.386;2024-01-11T11:01:52;23.95;;;20.25;;
32808;SDS011;19159;48.178;16.386;2024-01-11T11:04:21;24.83;;;22.23;;
32808;SDS011;19159;48.178;16.386;2024-01-11T11:06:49;21.48;;;19.20;;
32808;SDS011;19159;48.178;16.386;2024-01-11T11:09:15;23.52;;;19.67;;
32808;SDS011;19159;48.178;16.386;2024-01-11T11:11:43;26.02;;;19.52;;
32808;SDS011;19159;48.178;16.386;2024-01-11T11:14:10;22.80;;;19.52;;
32808;SDS011;19159;48.178;16.386;2024-01-11T11:16:40;21.50;;;19.20;;
32808;SDS011;19159;48.178;16.386;2024-01-11T11:19:06;20.25;;;18.15;;
32808;SDS011;19159;48.178;16.386;2024-01-11T11:21:32;24.08;;;19.90;;
32808;SDS011;19159;48.178;16.386;2024-01-11T11:24:06;22.65;;;17.63;;
32808;SDS011;19159;48.178;16.386;2024-01-11T11:26:32;22.88;;;18.75;;
32808;SDS011;19159;48.178;16.386;2024-01-11T11:28:58;24.58;;;20.45;;
32808;SDS011;19159;48.178;16.386;2024-01-11T11:31:36;23.88;;;18.77;;
32808;SDS011;19159;48.178;16.386;2024-01-11T11:34:11;22.58;;;19.05;;
32808;SDS011;19159;48.178;16.386;2024-01-11T11:36:39;22.10;;;18.20;;
32808;SDS011;19159;48.178;16.386;2024-01-11T11:39:09;19.27;;;17.15;;
32808;SDS011;19159;48.178;16.386;2024-01-11T11:41:38;19.98;;;17.88;;
32808;SDS011;19159;48.178;16.386;2024-01-11T11:44:05;20.00;;;17.92;;
32808;SDS011;19159;48.178;16.386;2024-01-11T11:46:32;20.30;;;17.67;;
32808;SDS011;19159;48.178;16.386;2024-01-11T11:48:58;19.42;;;17.30;;
32808;SDS011;19159;48.178;16.386;2024-01-11T11:51:25;20.20;;;17.10;;
32808;SDS011;19159;48.178;16.386;2024-01-11T11:53:51;18.50;;;16.17;;
32808;SDS011;19159;48.178;16.386;2024-01-11T11:56:18;21.33;;;17.90;;
32808;SDS011;19159;48.178;16.386;2024-01-11T11:58:46;18.63;;;15.90;;
32808;SDS011;19159;48.178;16.386;2024-01-11T12:01:15;19.52;;;17.27;;
32808;SDS011;19159;48.178;16.386;2024-01-11T12:03:45;19.58;;;17.48;;
32808;SDS011;19159;48.178;16.386;2024-01-11T12:06:15;18.83;;;16.83;;
32808;SDS011;19159;48.178;16.386;2024-01-11T12:08:42;18.67;;;16.15;;
32808;SDS011;19159;48.178;16.386;2024-01-11T12:11:08;18.58;;;16.63;;
32808;SDS011;19159;48.178;16.386;2024-01-11T12:13:34;18.48;;;16.58;;
32808;SDS011;19159;48.178;16.386;2024-01-11T12:16:01;19.20;;;16.98;;
32808;SDS011;19159;48.178;16.386;2024-01-11T12:18:27;18.45;;;15.98;;
32808;SDS011;19159;48.178;16.386;2024-01-11T12:20:52;20.80;;;16.48;;
32808;SDS011;19159;48.178;16.386;2024-01-11T12:23:18;19.48;;;16.40;;
32808;SDS011;19159;48.178;16.386;2024-01-11T12:25:44;18.02;;;16.13;;
32808;SDS011;19159;48.178;16.386;2024-01-11T12:28:10;19.15;;;16.48;;
32808;SDS011;19159;48.178;16.386;2024-01-11T12:30:36;18.45;;;16.45;;
32808;SDS011;19159;48.178;16.386;2024-01-11T12:33:03;18.98;;;15.18;;
32808;SDS011;19159;48.178;16.386;2024-01-11T12:35:30;18.30;;;15.68;;
32808;SDS011;19159;48.178;16.386;2024-01-11T12:40:25;19.08;;;16.08;;
32808;SDS011;19159;48.178;16.386;2024-01-11T12:42:52;18.83;;;16.20;;
32808;SDS011;19159;48.178;16.386;2024-01-11T12:45:18;19.17;;;17.20;;
32808;SDS011;19159;48.178;16.386;2024-01-11T12:47:47;21.73;;;18.08;;
32808;SDS011;19159;48.178;16.386;2024-01-11T12:50:13;20.73;;;17.40;;
32808;SDS011;19159;48.178;16.386;2024-01-11T12:52:39;20.98;;;17.23;;
32808;SDS011;19159;48.178;16.386;2024-01-11T12:55:07;21.35;;;17.20;;
32808;SDS011;19159;48.178;16.386;2024-01-11T12:57:42;22.98;;;16.48;;
32808;SDS011;19159;48.178;16.386;2024-01-11T13:00:15;21.02;;;17.60;;
32808;SDS011;19159;48.178;16.386;2024-01-11T13:02:41;27.35;;;17.75;;
32808;SDS011;19159;48.178;16.386;2024-01-11T13:05:11;24.33;;;18.50;;
32808;SDS011;19159;48.178;16.386;2024-01-11T13:07:37;23.35;;;18.83;;
32808;SDS011;19159;48.178;16.386;2024-01-11T13:10:03;23.35;;;19.10;;
32808;SDS011;19159;48.178;16.386;2024-01-11T13:12:30;27.35;;;18.63;;
32808;SDS011;19159;48.178;16.386;2024-01-11T13:14:56;24.95;;;18.17;;
32808;SDS011;19159;48.178;16.386;2024-01-11T13:17:22;26.70;;;19.90;;
32808;SDS011;19159;48.178;16.386;2024-01-11T13:19:48;24.73;;;17.17;;
32808;SDS011;19159;48.178;16.386;2024-01-11T13:22:13;24.67;;;18.05;;
32808;SDS011;19159;48.178;16.386;2024-01-11T13:24:39;21.38;;;17.42;;
32808;SDS011;19159;48.178;16.386;2024-01-11T13:27:05;22.45;;;17.75;;
32808;SDS011;19159;48.178;16.386;2024-01-11T13:29:31;22.88;;;17.67;;
32808;SDS011;19159;48.178;16.386;2024-01-11T13:31:56;24.65;;;18.23;;
32808;SDS011;19159;48.178;16.386;2024-01-11T13:34:22;27.55;;;19.10;;
32808;SDS011;19159;48.178;16.386;2024-01-11T13:36:48;24.65;;;19.17;;
32808;SDS011;19159;48.178;16.386;2024-01-11T13:39:14;22.77;;;18.17;;
32808;SDS011;19159;48.178;16.386;2024-01-11T13:41:43;27.92;;;18.50;;
32808;SDS011;19159;48.178;16.386;2024-01-11T13:44:09;23.73;;;18.52;;
32808;SDS011;19159;48.178;16.386;2024-01-11T13:46:36;25.10;;;18.20;;
32808;SDS011;19159;48.178;16.386;2024-01-11T13:49:02;24.73;;;19.42;;
32808;SDS011;19159;48.178;16.386;2024-01-11T13:51:28;26.77;;;20.08;;
32808;SDS011;19159;48.178;16.386;2024-01-11T13:53:53;25.52;;;20.73;;
32808;SDS011;19159;48.178;16.386;2024-01-11T13:56:19;30.38;;;21.13;;
32808;SDS011;19159;48.178;16.386;2024-01-11T13:58:45;30.33;;;20.55;;
32808;SDS011;19159;48.178;16.386;2024-01-11T14:01:11;25.48;;;18.83;;
32808;SDS011;19159;48.178;16.386;2024-01-11T14:03:38;29.15;;;20.95;;
32808;SDS011;19159;48.178;16.386;2024-01-11T14:06:04;28.40;;;19.73;;
32808;SDS011;19159;48.178;16.386;2024-01-11T14:08:30;29.05;;;20.52;;